sensor_id;sensor_type;location;lat;lon;timestamp;P1;durP1;ratioP1;P2;durP2;ratioP2
3369;SDS011;42042;51.948;7.628;2023-02-26T00:02:15;3.60;;;1.90;;
3369;SDS011;42042;51.948;7.628;2023-02-26T00:04:43;9.55;;;2.58;;
3369;SDS011;42042;51.948;7.628;2023-02-26T00:07:10;7.57;;;2.13;;
3369;SDS011;42042;51.948;7.628;2023-02-26T00:09:37;7.78;;;2.63;;
3369;SDS011;42042;51.948;7.628;2023-02-26T00:12:06;6.38;;;2.20;;
3369;SDS011;42042;51.948;7.628;2023-02-26T00:14:34;4.32;;;2.40;;
3369;SDS011;42042;51.948;7.628;2023-02-26T00:17:13;7.43;;;2.10;;
3369;SDS011;42042;51.948;7.628;2023-02-26T00:19:49;2.25;;;1.95;;
3369;SDS011;42042;51.948;7.628;2023-02-26T00:22:16;5.90;;;2.17;;
3369;SDS011;42042;51.948;7.628;2023-02-26T00:24:44;5.90;;;2.03;;
3369;SDS011;42042;51.948;7.628;2023-02-26T00:27:12;2.60;;;2.10;;
3369;SDS011;42042;51.948;7.628;2023-02-26T00:29:40;4.30;;;2.25;;
3369;SDS011;42042;51.948;7.628;2023-02-26T00:32:07;6.22;;;2.35;;
3369;SDS011;42042;51.948;7.628;2023-02-26T00:34:34;3.08;;;1.75;;
3369;SDS011;42042;51.948;7.628;2023-02-26T00:37:04;3.05;;;1.90;;
3369;SDS011;42042;51.948;7.628;2023-02-26T00:39:36;5.32;;;2.00;;
3369;SDS011;42042;51.948;7.628;2023-02-26T00:42:05;2.75;;;2.50;;
3369;SDS011;42042;51.948;7.628;2023-02-26T00:44:34;4.35;;;2.00;;
3369;SDS011;42042;51.948;7.628;2023-02-26T00:47:03;7.78;;;2.45;;
3369;SDS011;42042;51.948;7.628;2023-02-26T00:49:39;3.67;;;2.20;;
3369;SDS011;42042;51.948;7.628;2023-02-26T00:52:10;3.10;;;2.05;;
3369;SDS011;42042;51.948;7.628;2023-02-26T00:54:39;2.55;;;1.80;;
3369;SDS011;42042;51.948;7.628;2023-02-26T00:57:06;2.50;;;2.25;;
3369;SDS011;42042;51.948;7.628;2023-02-26T00:59:34;4.68;;;2.00;;
3369;SDS011;42042;51.948;7.628;2023-02-26T01:02:02;3.38;;;1.90;;
3369;SDS011;42042;51.948;7.628;2023-02-26T01:04:29;8.05;;;2.10;;
3369;SDS011;42042;51.948;7.628;2023-02-26T01:06:56;3.05;;;1.60;;
3369;SDS011;42042;51.948;7.628;2023-02-26T01:09:25;3.25;;;2.05;;
3369;SDS011;42042;51.948;7.628;2023-02-26T01:11:53;7.50;;;1.90;;
3369;SDS011;42042;51.948;7.628;2023-02-26T01:14:20;4.32;;;1.95;;
3369;SDS011;42042;51.948;7.628;2023-02-26T01:16:51;1.83;;;1.70;;
3369;SDS011;42042;51.948;7.628;2023-02-26T01:19:22;3.72;;;1.83;;
3369;SDS011;42042;51.948;7.628;2023-02-26T01:21:54;4.90;;;2.42;;
3369;SDS011;42042;51.948;7.628;2023-02-26T01:24:22;3.42;;;2.45;;
3369;SDS011;42042;51.948;7.628;2023-02-26T01:26:51;1.88;;;1.67;;
3369;SDS011;42042;51.948;7.628;2023-02-26T01:29:18;3.50;;;2.17;;
3369;SDS011;42042;51.948;7.628;2023-02-26T01:31:48;2.75;;;2.10;;
3369;SDS011;42042;51.948;7.628;2023-02-26T01:34:18;3.47;;;2.00;;
3369;SDS011;42042;51.948;7.628;2023-02-26T01:36:49;2.88;;;2.10;;
3369;SDS011;42042;51.948;7.628;2023-02-26T01:39:19;3.83;;;1.90;;
3369;SDS011;42042;51.948;7.628;2023-02-26T01:41:51;5.78;;;1.95;;
3369;SDS011;42042;51.948;7.628;2023-02-26T01:44:21;4.07;;;2.13;;
3369;SDS011;42042;51.948;7.628;2023-02-26T01:47:02;3.40;;;1.95;;
3369;SDS011;42042;51.948;7.628;2023-02-26T01:49:31;2.35;;;2.15;;
3369;SDS011;42042;51.948;7.628;2023-02-26T01:51:59;2.38;;;2.17;;
3369;SDS011;42042;51.948;7.628;2023-02-26T01:54:28;4.50;;;2.30;;
3369;SDS011;42042;51.948;7.628;2023-02-26T01:56:56;2.50;;;1.95;;
3369;SDS011;42042;51.948;7.628;2023-02-26T01:59:25;3.25;;;2.08;;
3369;SDS011;42042;51.948;7.628;2023-02-26T02:01:52;2.53;;;2.03;;
3369;SDS011;42042;51.948;7.628;2023-02-26T02:04:20;6.70;;;2.40;;
3369;SDS011;42042;51.948;7.628;2023-02-26T02:06:50;4.15;;;2.38;;
3369;SDS011;42042;51.948;7.628;2023-02-26T02:09:17;4.38;;;2.10;;
3369;SDS011;42042;51.948;7.628;2023-02-26T02:11:48;7.68;;;2.20;;
3369;SDS011;42042;51.948;7.628;2023-02-26T02:14:21;2.95;;;1.92;;
3369;SDS011;42042;51.948;7.628;2023-02-26T02:16:52;5.53;;;2.22;;
3369;SDS011;42042;51.948;7.628;2023-02-26T02:22:31;3.80;;;2.17;;
3369;SDS011;42042;51.948;7.628;2023-02-26T02:25:06;4.95;;;2.05;;
3369;SDS011;42042;51.948;7.628;2023-02-26T02:27:38;3.85;;;2.58;;
3369;SDS011;42042;51.948;7.628;2023-02-26T02:30:21;4.15;;;2.10;;
3369;SDS011;42042;51.948;7.628;2023-02-26T02:32:53;3.53;;;1.92;;
3369;SDS011;42042;51.948;7.628;2023-02-26T02:35:23;2.45;;;2.30;;
3369;SDS011;42042;51.948;7.628;2023-02-26T02:37:53;3.95;;;2.05;;
3369;SDS011;42042;51.948;7.628;2023-02-26T02:40:22;3.80;;;2.67;;
3369;SDS011;42042;51.948;7.628;2023-02-26T02:42:51;4.40;;;2.05;;
3369;SDS011;42042;51.948;7.628;2023-02-26T02:45:20;4.50;;;1.95;;
3369;SDS011;42042;51.948;7.628;2023-02-26T02:47:50;3.35;;;1.90;;
3369;SDS011;42042;51.948;7.628;2023-02-26T02:50:21;3.88;;;1.88;;
3369;SDS011;42042;51.948;7.628;2023-02-26T02:52:51;3.75;;;2.00;;
3369;SDS011;42042;51.948;7.628;2023-02-26T02:55:20;3.92;;;1.95;;
3369;SDS011;42042;51.948;7.628;2023-02-26T02:57:51;5.00;;;2.10;;
3369;SDS011;42042;51.948;7.628;2023-02-26T03:00:20;4.13;;;2.03;;
3369;SDS011;42042;51.948;7.628;2023-02-26T03:02:49;4.20;;;2.10;;
3369;SDS011;42042;51.948;7.628;2023-02-26T03:05:17;1.95;;;1.67;;
3369;SDS011;42042;51.948;7.628;2023-02-26T03:07:48;3.88;;;2.38;;
3369;SDS011;42042;51.948;7.628;2023-02-26T03:10:16;2.20;;;1.80;;
3369;SDS011;42042;51.948;7.628;2023-02-26T03:12:43;3.13;;;1.95;;
3369;SDS011;42042;51.948;7.628;2023-02-26T03:15:10;2.17;;;1.98;;
3369;SDS011;42042;51.948;7.628;2023-02-26T03:17:40;5.07;;;2.50;;
3369;SDS011;42042;51.948;7.628;2023-02-26T03:20:12;3.85;;;2.03;;
3369;SDS011;42042;51.948;7.628;2023-02-26T03:22:44;1.52;;;1.42;;
3369;SDS011;42042;51.948;7.628;2023-02-26T03:25:15;2.20;;;2.00;;
3369;SDS011;42042;51.948;7.628;2023-02-26T03:27:45;2.80;;;1.85;;
3369;SDS011;42042;51.948;7.628;2023-02-26T03:30:14;3.30;;;2.00;;
3369;SDS011;42042;51.948;7.628;2023-02-26T03:32:42;3.10;;;1.83;;
3369;SDS011;42042;51.948;7.628;2023-02-26T03:35:12;1.85;;;1.60;;
3369;SDS011;42042;51.948;7.628;2023-02-26T03:37:41;8.45;;;2.00;;
3369;SDS011;42042;51.948;7.628;2023-02-26T03:40:11;5.70;;;1.98;;
3369;SDS011;42042;51.948;7.628;2023-02-26T03:42:43;3.40;;;1.48;;
3369;SDS011;42042;51.948;7.628;2023-02-26T03:45:12;2.88;;;1.85;;
3369;SDS011;42042;51.948;7.628;2023-02-26T03:47:41;2.40;;;1.45;;
3369;SDS011;42042;51.948;7.628;2023-02-26T03:50:11;2.97;;;2.05;;
3369;SDS011;42042;51.948;7.628;2023-02-26T03:52:41;4.47;;;1.80;;
3369;SDS011;42042;51.948;7.628;2023-02-26T03:55:09;4.00;;;1.98;;
3369;SDS011;42042;51.948;7.628;2023-02-26T03:57:38;1.70;;;1.60;;
3369;SDS011;42042;51.948;7.628;2023-02-26T04:00:08;2.17;;;1.90;;
3369;SDS011;42042;51.948;7.628;2023-02-26T04:02:36;4.50;;;2.05;;
3369;SDS011;42042;51.948;7.628;2023-02-26T04:05:06;2.25;;;1.88;;
3369;SDS011;42042;51.948;7.628;2023-02-26T04:07:36;4.95;;;2.08;;
3369;SDS011;42042;51.948;7.628;2023-02-26T04:10:04;8.02;;;2.45;;
3369;SDS011;42042;51.948;7.628;2023-02-26T04:12:32;6.03;;;2.10;;
3369;SDS011;42042;51.948;7.628;2023-02-26T04:14:59;4.05;;;2.08;;
3369;SDS011;42042;51.948;7.628;2023-02-26T04:17:30;4.53;;;1.50;;
3369;SDS011;42042;51.948;7.628;2023-02-26T04:19:57;4.80;;;1.65;;
3369;SDS011;42042;51.948;7.628;2023-02-26T04:22:25;6.13;;;1.90;;
3369;SDS011;42042;51.948;7.628;2023-02-26T04:24:52;1.70;;;1.60;;
3369;SDS011;42042;51.948;7.628;2023-02-26T04:27:19;4.80;;;2.58;;
3369;SDS011;42042;51.948;7.628;2023-02-26T04:29:46;3.25;;;2.20;;
3369;SDS011;42042;51.948;7.628;2023-02-26T04:32:13;4.57;;;1.90;;
3369;SDS011;42042;51.948;7.628;2023-02-26T04:34:42;4.10;;;1.80;;
3369;SDS011;42042;51.948;7.628;2023-02-26T04:37:09;3.15;;;1.70;;
3369;SDS011;42042;51.948;7.628;2023-02-26T04:39:36;4.85;;;1.92;;
3369;SDS011;42042;51.948;7.628;2023-02-26T04:42:03;4.95;;;1.80;;
3369;SDS011;42042;51.948;7.628;2023-02-26T04:44:31;1.63;;;1.52;;
3369;SDS011;42042;51.948;7.628;2023-02-26T04:46:59;2.58;;;1.95;;
3369;SDS011;42042;51.948;7.628;2023-02-26T04:49:26;6.50;;;1.90;;
3369;SDS011;42042;51.948;7.628;2023-02-26T04:51:55;1.67;;;1.58;;
3369;SDS011;42042;51.948;7.628;2023-02-26T04:54:22;2.00;;;1.55;;
3369;SDS011;42042;51.948;7.628;2023-02-26T04:56:49;2.58;;;2.00;;
3369;SDS011;42042;51.948;7.628;2023-02-26T04:59:16;6.22;;;1.88;;
3369;SDS011;42042;51.948;7.628;2023-02-26T05:01:43;5.40;;;1.75;;
3369;SDS011;42042;51.948;7.628;2023-02-26T05:04:10;2.65;;;1.55;;
3369;SDS011;42042;51.948;7.628;2023-02-26T05:06:38;1.85;;;1.50;;
3369;SDS011;42042;51.948;7.628;2023-02-26T05:09:07;3.47;;;1.80;;
3369;SDS011;42042;51.948;7.628;2023-02-26T05:11:34;4.28;;;2.00;;
3369;SDS011;42042;51.948;7.628;2023-02-26T05:14:01;1.77;;;1.40;;
3369;SDS011;42042;51.948;7.628;2023-02-26T05:16:28;2.05;;;1.85;;
3369;SDS011;42042;51.948;7.628;2023-02-26T05:18:56;2.53;;;2.20;;
3369;SDS011;42042;51.948;7.628;2023-02-26T05:21:23;4.50;;;1.70;;
3369;SDS011;42042;51.948;7.628;2023-02-26T05:23:50;5.28;;;2.10;;
3369;SDS011;42042;51.948;7.628;2023-02-26T05:26:19;3.38;;;1.70;;
3369;SDS011;42042;51.948;7.628;2023-02-26T05:28:46;2.28;;;1.75;;
3369;SDS011;42042;51.948;7.628;2023-02-26T05:31:13;5.85;;;2.30;;
3369;SDS011;42042;51.948;7.628;2023-02-26T05:33:40;1.77;;;1.60;;
3369;SDS011;42042;51.948;7.628;2023-02-26T05:36:08;10.98;;;1.85;;
3369;SDS011;42042;51.948;7.628;2023-02-26T05:38:35;2.47;;;1.90;;
3369;SDS011;42042;51.948;7.628;2023-02-26T05:41:02;3.47;;;1.88;;
3369;SDS011;42042;51.948;7.628;2023-02-26T05:43:31;2.60;;;1.55;;
3369;SDS011;42042;51.948;7.628;2023-02-26T05:45:58;6.18;;;2.00;;
3369;SDS011;42042;51.948;7.628;2023-02-26T05:48:26;5.70;;;1.92;;
3369;SDS011;42042;51.948;7.628;2023-02-26T05:50:53;5.13;;;1.85;;
3369;SDS011;42042;51.948;7.628;2023-02-26T05:53:20;4.18;;;1.90;;
3369;SDS011;42042;51.948;7.628;2023-02-26T05:55:47;6.25;;;1.73;;
3369;SDS011;42042;51.948;7.628;2023-02-26T05:58:15;3.28;;;1.75;;
3369;SDS011;42042;51.948;7.628;2023-02-26T06:00:44;2.50;;;1.90;;
3369;SDS011;42042;51.948;7.628;2023-02-26T06:03:11;5.28;;;1.73;;
3369;SDS011;42042;51.948;7.628;2023-02-26T06:05:38;2.33;;;1.40;;
3369;SDS011;42042;51.948;7.628;2023-02-26T06:08:05;3.35;;;2.20;;
3369;SDS011;42042;51.948;7.628;2023-02-26T06:10:33;3.17;;;1.70;;
3369;SDS011;42042;51.948;7.628;2023-02-26T06:13:00;4.57;;;1.75;;
3369;SDS011;42042;51.948;7.628;2023-02-26T06:15:27;4.47;;;2.20;;
3369;SDS011;42042;51.948;7.628;2023-02-26T06:17:55;5.75;;;1.70;;
3369;SDS011;42042;51.948;7.628;2023-02-26T06:20:23;3.13;;;1.45;;
3369;SDS011;42042;51.948;7.628;2023-02-26T06:22:50;3.20;;;1.75;;
3369;SDS011;42042;51.948;7.628;2023-02-26T06:25:17;2.78;;;1.60;;
3369;SDS011;42042;51.948;7.628;2023-02-26T06:27:44;6.55;;;2.38;;
3369;SDS011;42042;51.948;7.628;2023-02-26T06:30:12;3.40;;;2.13;;
3369;SDS011;42042;51.948;7.628;2023-02-26T06:32:39;3.30;;;1.80;;
3369;SDS011;42042;51.948;7.628;2023-02-26T06:35:08;2.20;;;1.77;;
3369;SDS011;42042;51.948;7.628;2023-02-26T06:37:35;2.00;;;1.88;;
3369;SDS011;42042;51.948;7.628;2023-02-26T06:40:03;2.13;;;1.73;;
3369;SDS011;42042;51.948;7.628;2023-02-26T06:42:30;1.85;;;1.75;;
3369;SDS011;42042;51.948;7.628;2023-02-26T06:44:58;5.43;;;2.45;;
3369;SDS011;42042;51.948;7.628;2023-02-26T06:47:25;2.33;;;2.00;;
3369;SDS011;42042;51.948;7.628;2023-02-26T06:49:52;3.50;;;2.00;;
3369;SDS011;42042;51.948;7.628;2023-02-26T06:52:20;5.60;;;1.95;;
3369;SDS011;42042;51.948;7.628;2023-02-26T06:54:48;6.68;;;2.35;;
3369;SDS011;42042;51.948;7.628;2023-02-26T06:57:15;10.23;;;1.65;;
3369;SDS011;42042;51.948;7.628;2023-02-26T06:59:42;4.70;;;2.03;;
3369;SDS011;42042;51.948;7.628;2023-02-26T07:02:11;1.80;;;1.70;;
3369;SDS011;42042;51.948;7.628;2023-02-26T07:04:41;2.45;;;2.00;;
3369;SDS011;42042;51.948;7.628;2023-02-26T07:07:08;4.75;;;1.90;;
3369;SDS011;42042;51.948;7.628;2023-02-26T07:09:37;2.45;;;2.25;;
3369;SDS011;42042;51.948;7.628;2023-02-26T07:12:04;4.60;;;2.40;;
3369;SDS011;42042;51.948;7.628;2023-02-26T07:14:32;3.90;;;1.40;;
3369;SDS011;42042;51.948;7.628;2023-02-26T07:16:59;2.38;;;2.05;;
3369;SDS011;42042;51.948;7.628;2023-02-26T07:19:27;1.77;;;1.67;;
3369;SDS011;42042;51.948;7.628;2023-02-26T07:21:54;1.98;;;1.50;;
3369;SDS011;42042;51.948;7.628;2023-02-26T07:24:21;1.60;;;1.50;;
3369;SDS011;42042;51.948;7.628;2023-02-26T07:26:49;3.08;;;2.20;;
3369;SDS011;42042;51.948;7.628;2023-02-26T07:29:17;3.03;;;1.55;;
3369;SDS011;42042;51.948;7.628;2023-02-26T07:31:44;2.65;;;1.65;;
3369;SDS011;42042;51.948;7.628;2023-02-26T07:34:11;4.80;;;1.90;;
3369;SDS011;42042;51.948;7.628;2023-02-26T07:36:38;6.80;;;1.50;;
3369;SDS011;42042;51.948;7.628;2023-02-26T07:39:06;3.45;;;1.65;;
3369;SDS011;42042;51.948;7.628;2023-02-26T07:41:33;6.18;;;2.20;;
3369;SDS011;42042;51.948;7.628;2023-02-26T07:44:01;3.10;;;2.65;;
3369;SDS011;42042;51.948;7.628;2023-02-26T07:46:28;3.85;;;1.80;;
3369;SDS011;42042;51.948;7.628;2023-02-26T07:48:56;1.80;;;1.70;;
3369;SDS011;42042;51.948;7.628;2023-02-26T07:51:23;9.75;;;2.15;;
3369;SDS011;42042;51.948;7.628;2023-02-26T07:53:50;3.15;;;1.73;;
3369;SDS011;42042;51.948;7.628;2023-02-26T07:56:17;7.90;;;2.20;;
3369;SDS011;42042;51.948;7.628;2023-02-26T07:58:44;5.63;;;1.75;;
3369;SDS011;42042;51.948;7.628;2023-02-26T08:01:13;3.35;;;1.95;;
3369;SDS011;42042;51.948;7.628;2023-02-26T08:03:40;3.38;;;2.10;;
3369;SDS011;42042;51.948;7.628;2023-02-26T08:06:07;1.88;;;1.73;;
3369;SDS011;42042;51.948;7.628;2023-02-26T08:08:34;2.17;;;1.67;;
3369;SDS011;42042;51.948;7.628;2023-02-26T08:11:02;2.22;;;1.90;;
3369;SDS011;42042;51.948;7.628;2023-02-26T08:13:29;7.85;;;2.72;;
3369;SDS011;42042;51.948;7.628;2023-02-26T08:15:56;2.35;;;2.15;;
3369;SDS011;42042;51.948;7.628;2023-02-26T08:18:25;4.38;;;1.80;;
3369;SDS011;42042;51.948;7.628;2023-02-26T08:20:52;3.85;;;1.90;;
3369;SDS011;42042;51.948;7.628;2023-02-26T08:23:19;3.80;;;2.58;;
3369;SDS011;42042;51.948;7.628;2023-02-26T08:25:46;1.73;;;1.63;;
3369;SDS011;42042;51.948;7.628;2023-02-26T08:28:14;2.00;;;1.60;;
3369;SDS011;42042;51.948;7.628;2023-02-26T08:30:41;10.35;;;1.83;;
3369;SDS011;42042;51.948;7.628;2023-02-26T08:33:09;3.83;;;1.63;;
3369;SDS011;42042;51.948;7.628;2023-02-26T08:35:37;3.60;;;1.73;;
3369;SDS011;42042;51.948;7.628;2023-02-26T08:38:05;3.55;;;2.22;;
3369;SDS011;42042;51.948;7.628;2023-02-26T08:40:32;3.90;;;3.20;;
3369;SDS011;42042;51.948;7.628;2023-02-26T08:42:59;2.63;;;1.67;;
3369;SDS011;42042;51.948;7.628;2023-02-26T08:45:27;2.35;;;1.50;;
3369;SDS011;42042;51.948;7.628;2023-02-26T08:47:55;2.95;;;1.90;;
3369;SDS011;42042;51.948;7.628;2023-02-26T08:50:22;4.20;;;1.90;;
3369;SDS011;42042;51.948;7.628;2023-02-26T08:52:51;3.47;;;2.03;;
3369;SDS011;42042;51.948;7.628;2023-02-26T08:55:19;5.30;;;1.60;;
3369;SDS011;42042;51.948;7.628;2023-02-26T08:57:46;2.97;;;2.38;;
3369;SDS011;42042;51.948;7.628;2023-02-26T09:00:13;4.50;;;2.17;;
3369;SDS011;42042;51.948;7.628;2023-02-26T09:02:42;5.30;;;2.10;;
3369;SDS011;42042;51.948;7.628;2023-02-26T09:05:10;2.28;;;1.52;;
3369;SDS011;42042;51.948;7.628;2023-02-26T09:07:39;8.60;;;2.15;;
3369;SDS011;42042;51.948;7.628;2023-02-26T09:10:08;5.75;;;1.70;;
3369;SDS011;42042;51.948;7.628;2023-02-26T09:12:36;4.28;;;2.35;;
3369;SDS011;42042;51.948;7.628;2023-02-26T09:15:03;4.40;;;1.80;;
3369;SDS011;42042;51.948;7.628;2023-02-26T09:17:30;8.80;;;1.90;;
3369;SDS011;42042;51.948;7.628;2023-02-26T09:19:58;3.10;;;1.80;;
3369;SDS011;42042;51.948;7.628;2023-02-26T09:22:25;3.63;;;1.90;;
3369;SDS011;42042;51.948;7.628;2023-02-26T09:24:52;3.05;;;1.80;;
3369;SDS011;42042;51.948;7.628;2023-02-26T09:27:20;2.72;;;1.60;;
3369;SDS011;42042;51.948;7.628;2023-02-26T09:29:49;3.00;;;1.95;;
3369;SDS011;42042;51.948;7.628;2023-02-26T09:32:16;4.00;;;2.17;;
3369;SDS011;42042;51.948;7.628;2023-02-26T09:34:43;4.30;;;1.80;;
3369;SDS011;42042;51.948;7.628;2023-02-26T09:37:10;2.85;;;1.75;;
3369;SDS011;42042;51.948;7.628;2023-02-26T09:39:37;2.75;;;1.42;;
3369;SDS011;42042;51.948;7.628;2023-02-26T09:42:06;3.88;;;1.50;;
3369;SDS011;42042;51.948;7.628;2023-02-26T09:44:37;1.73;;;1.52;;
3369;SDS011;42042;51.948;7.628;2023-02-26T09:47:06;2.08;;;1.63;;
3369;SDS011;42042;51.948;7.628;2023-02-26T09:49:42;4.32;;;2.15;;
3369;SDS011;42042;51.948;7.628;2023-02-26T09:52:12;4.10;;;1.60;;
3369;SDS011;42042;51.948;7.628;2023-02-26T09:54:44;2.08;;;1.45;;
3369;SDS011;42042;51.948;7.628;2023-02-26T09:57:14;1.65;;;1.55;;
3369;SDS011;42042;51.948;7.628;2023-02-26T09:59:46;3.45;;;1.88;;
3369;SDS011;42042;51.948;7.628;2023-02-26T10:02:15;2.40;;;1.50;;
3369;SDS011;42042;51.948;7.628;2023-02-26T10:04:47;1.60;;;1.50;;
3369;SDS011;42042;51.948;7.628;2023-02-26T10:07:18;3.97;;;1.52;;
3369;SDS011;42042;51.948;7.628;2023-02-26T10:09:56;2.22;;;1.50;;
3369;SDS011;42042;51.948;7.628;2023-02-26T10:12:26;3.10;;;1.90;;
3369;SDS011;42042;51.948;7.628;2023-02-26T10:14:56;2.85;;;1.60;;
3369;SDS011;42042;51.948;7.628;2023-02-26T10:17:25;6.18;;;2.10;;
3369;SDS011;42042;51.948;7.628;2023-02-26T10:19:56;1.88;;;1.63;;
3369;SDS011;42042;51.948;7.628;2023-02-26T10:22:27;5.90;;;1.95;;
3369;SDS011;42042;51.948;7.628;2023-02-26T10:24:57;1.52;;;1.42;;
3369;SDS011;42042;51.948;7.628;2023-02-26T10:27:29;3.92;;;2.03;;
3369;SDS011;42042;51.948;7.628;2023-02-26T10:30:04;1.40;;;1.30;;
3369;SDS011;42042;51.948;7.628;2023-02-26T10:32:34;2.38;;;1.50;;
3369;SDS011;42042;51.948;7.628;2023-02-26T10:35:03;3.35;;;1.60;;
3369;SDS011;42042;51.948;7.628;2023-02-26T10:37:36;3.08;;;1.52;;
3369;SDS011;42042;51.948;7.628;2023-02-26T10:40:08;2.00;;;1.55;;
3369;SDS011;42042;51.948;7.628;2023-02-26T10:42:38;2.75;;;1.95;;
3369;SDS011;42042;51.948;7.628;2023-02-26T10:45:10;3.63;;;1.60;;
3369;SDS011;42042;51.948;7.628;2023-02-26T10:47:42;1.92;;;1.75;;
3369;SDS011;42042;51.948;7.628;2023-02-26T10:50:12;2.85;;;1.45;;
3369;SDS011;42042;51.948;7.628;2023-02-26T10:52:41;1.63;;;1.40;;
3369;SDS011;42042;51.948;7.628;2023-02-26T10:55:17;1.55;;;1.45;;
3369;SDS011;42042;51.948;7.628;2023-02-26T10:57:49;3.50;;;1.60;;
3369;SDS011;42042;51.948;7.628;2023-02-26T11:00:19;3.20;;;2.03;;
3369;SDS011;42042;51.948;7.628;2023-02-26T11:02:48;1.88;;;1.40;;
3369;SDS011;42042;51.948;7.628;2023-02-26T11:05:18;3.67;;;1.95;;
3369;SDS011;42042;51.948;7.628;2023-02-26T11:07:46;3.25;;;2.63;;
3369;SDS011;42042;51.948;7.628;2023-02-26T11:10:15;10.20;;;9.15;;
3369;SDS011;42042;51.948;7.628;2023-02-26T11:12:43;6.50;;;5.25;;
3369;SDS011;42042;51.948;7.628;2023-02-26T11:15:11;4.82;;;3.30;;
3369;SDS011;42042;51.948;7.628;2023-02-26T11:17:40;2.65;;;1.50;;
3369;SDS011;42042;51.948;7.628;2023-02-26T11:20:18;1.63;;;1.48;;
3369;SDS011;42042;51.948;7.628;2023-02-26T11:22:51;2.67;;;1.70;;
3369;SDS011;42042;51.948;7.628;2023-02-26T11:25:21;2.25;;;1.60;;
3369;SDS011;42042;51.948;7.628;2023-02-26T11:27:50;4.63;;;1.75;;
3369;SDS011;42042;51.948;7.628;2023-02-26T11:30:19;1.70;;;1.60;;
3369;SDS011;42042;51.948;7.628;2023-02-26T11:32:51;1.88;;;1.45;;
3369;SDS011;42042;51.948;7.628;2023-02-26T11:35:20;2.10;;;1.80;;
3369;SDS011;42042;51.948;7.628;2023-02-26T11:37:49;1.67;;;1.40;;
3369;SDS011;42042;51.948;7.628;2023-02-26T11:40:21;2.08;;;1.30;;
3369;SDS011;42042;51.948;7.628;2023-02-26T11:42:50;1.42;;;1.33;;
3369;SDS011;42042;51.948;7.628;2023-02-26T11:45:19;16.23;;;9.27;;
3369;SDS011;42042;51.948;7.628;2023-02-26T11:47:46;21.83;;;11.88;;
3369;SDS011;42042;51.948;7.628;2023-02-26T11:50:17;12.52;;;6.60;;
3369;SDS011;42042;51.948;7.628;2023-02-26T11:52:47;22.77;;;10.10;;
3369;SDS011;42042;51.948;7.628;2023-02-26T11:55:21;9.88;;;7.38;;
3369;SDS011;42042;51.948;7.628;2023-02-26T11:57:49;1.98;;;1.70;;
3369;SDS011;42042;51.948;7.628;2023-02-26T12:00:18;2.15;;;1.92;;
3369;SDS011;42042;51.948;7.628;2023-02-26T12:02:46;1.80;;;1.50;;
3369;SDS011;42042;51.948;7.628;2023-02-26T12:05:14;3.25;;;1.60;;
3369;SDS011;42042;51.948;7.628;2023-02-26T12:07:43;7.07;;;3.92;;
3369;SDS011;42042;51.948;7.628;2023-02-26T12:10:13;3.08;;;2.47;;
3369;SDS011;42042;51.948;7.628;2023-02-26T12:12:51;2.35;;;1.80;;
3369;SDS011;42042;51.948;7.628;2023-02-26T12:15:22;3.15;;;1.40;;
3369;SDS011;42042;51.948;7.628;2023-02-26T12:17:57;2.50;;;1.60;;
3369;SDS011;42042;51.948;7.628;2023-02-26T12:20:27;2.05;;;1.58;;
3369;SDS011;42042;51.948;7.628;2023-02-26T12:23:01;2.55;;;1.52;;
3369;SDS011;42042;51.948;7.628;2023-02-26T12:25:38;3.40;;;1.60;;
3369;SDS011;42042;51.948;7.628;2023-02-26T12:28:16;1.48;;;1.38;;
3369;SDS011;42042;51.948;7.628;2023-02-26T12:31:01;5.88;;;1.73;;
3369;SDS011;42042;51.948;7.628;2023-02-26T12:33:34;3.65;;;2.75;;
3369;SDS011;42042;51.948;7.628;2023-02-26T12:36:08;3.70;;;1.48;;
3369;SDS011;42042;51.948;7.628;2023-02-26T12:38:45;2.55;;;1.60;;
3369;SDS011;42042;51.948;7.628;2023-02-26T12:41:19;1.52;;;1.42;;
3369;SDS011;42042;51.948;7.628;2023-02-26T12:43:48;2.38;;;1.70;;
3369;SDS011;42042;51.948;7.628;2023-02-26T12:46:21;2.97;;;1.50;;
3369;SDS011;42042;51.948;7.628;2023-02-26T12:51:37;3.47;;;1.35;;
3369;SDS011;42042;51.948;7.628;2023-02-26T12:54:18;1.60;;;1.50;;
3369;SDS011;42042;51.948;7.628;2023-02-26T12:56:52;1.60;;;1.42;;
3369;SDS011;42042;51.948;7.628;2023-02-26T12:59:25;1.65;;;1.55;;
3369;SDS011;42042;51.948;7.628;2023-02-26T13:02:03;3.90;;;2.10;;
3369;SDS011;42042;51.948;7.628;2023-02-26T13:10:16;3.83;;;2.08;;
3369;SDS011;42042;51.948;7.628;2023-02-26T13:12:46;4.53;;;1.55;;
3369;SDS011;42042;51.948;7.628;2023-02-26T13:15:30;1.55;;;1.45;;
3369;SDS011;42042;51.948;7.628;2023-02-26T13:17:59;1.70;;;1.60;;
3369;SDS011;42042;51.948;7.628;2023-02-26T13:20:29;3.63;;;1.60;;
3369;SDS011;42042;51.948;7.628;2023-02-26T13:22:58;2.10;;;1.63;;
3369;SDS011;42042;51.948;7.628;2023-02-26T13:25:30;4.82;;;1.70;;
3369;SDS011;42042;51.948;7.628;2023-02-26T13:28:00;1.90;;;1.70;;
3369;SDS011;42042;51.948;7.628;2023-02-26T13:30:30;2.53;;;2.05;;
3369;SDS011;42042;51.948;7.628;2023-02-26T13:32:59;3.42;;;1.90;;
3369;SDS011;42042;51.948;7.628;2023-02-26T13:35:28;5.78;;;2.13;;
3369;SDS011;42042;51.948;7.628;2023-02-26T13:37:57;3.45;;;1.90;;
3369;SDS011;42042;51.948;7.628;2023-02-26T13:43:20;2.20;;;1.77;;
3369;SDS011;42042;51.948;7.628;2023-02-26T13:45:51;2.40;;;1.80;;
3369;SDS011;42042;51.948;7.628;2023-02-26T13:48:26;2.05;;;1.30;;
3369;SDS011;42042;51.948;7.628;2023-02-26T13:51:01;1.83;;;1.65;;
3369;SDS011;42042;51.948;7.628;2023-02-26T13:56:05;2.00;;;1.80;;
3369;SDS011;42042;51.948;7.628;2023-02-26T13:58:36;4.03;;;2.42;;
3369;SDS011;42042;51.948;7.628;2023-02-26T14:01:08;2.00;;;1.80;;
3369;SDS011;42042;51.948;7.628;2023-02-26T14:03:36;2.58;;;1.50;;
3369;SDS011;42042;51.948;7.628;2023-02-26T14:06:08;4.20;;;1.70;;
3369;SDS011;42042;51.948;7.628;2023-02-26T14:08:44;2.40;;;1.60;;
3369;SDS011;42042;51.948;7.628;2023-02-26T14:11:33;2.60;;;2.05;;
3369;SDS011;42042;51.948;7.628;2023-02-26T14:14:12;4.03;;;1.80;;
3369;SDS011;42042;51.948;7.628;2023-02-26T14:16:40;2.80;;;1.80;;
3369;SDS011;42042;51.948;7.628;2023-02-26T14:19:18;1.70;;;1.60;;
3369;SDS011;42042;51.948;7.628;2023-02-26T14:21:47;2.20;;;2.00;;
3369;SDS011;42042;51.948;7.628;2023-02-26T14:24:15;3.60;;;2.70;;
3369;SDS011;42042;51.948;7.628;2023-02-26T14:26:45;2.55;;;2.05;;
3369;SDS011;42042;51.948;7.628;2023-02-26T14:29:20;2.45;;;1.70;;
3369;SDS011;42042;51.948;7.628;2023-02-26T14:31:59;6.75;;;2.50;;
3369;SDS011;42042;51.948;7.628;2023-02-26T14:34:30;3.58;;;2.25;;
3369;SDS011;42042;51.948;7.628;2023-02-26T14:37:01;3.83;;;2.55;;
3369;SDS011;42042;51.948;7.628;2023-02-26T14:39:33;2.88;;;1.90;;
3369;SDS011;42042;51.948;7.628;2023-02-26T14:42:02;2.03;;;1.83;;
3369;SDS011;42042;51.948;7.628;2023-02-26T14:44:33;3.03;;;2.75;;
3369;SDS011;42042;51.948;7.628;2023-02-26T14:47:02;2.08;;;1.75;;
3369;SDS011;42042;51.948;7.628;2023-02-26T14:49:30;3.00;;;2.47;;
3369;SDS011;42042;51.948;7.628;2023-02-26T14:54:46;2.00;;;1.80;;
3369;SDS011;42042;51.948;7.628;2023-02-26T14:57:17;3.92;;;1.70;;
3369;SDS011;42042;51.948;7.628;2023-02-26T14:59:56;2.70;;;2.00;;
3369;SDS011;42042;51.948;7.628;2023-02-26T15:02:27;3.35;;;1.95;;
3369;SDS011;42042;51.948;7.628;2023-02-26T15:05:10;1.65;;;1.55;;
3369;SDS011;42042;51.948;7.628;2023-02-26T15:07:48;2.17;;;1.42;;
3369;SDS011;42042;51.948;7.628;2023-02-26T15:10:25;2.15;;;1.70;;
3369;SDS011;42042;51.948;7.628;2023-02-26T15:13:02;3.10;;;1.73;;
3369;SDS011;42042;51.948;7.628;2023-02-26T15:15:37;1.80;;;1.70;;
3369;SDS011;42042;51.948;7.628;2023-02-26T15:18:15;1.90;;;1.80;;
3369;SDS011;42042;51.948;7.628;2023-02-26T15:20:46;2.55;;;1.92;;
3369;SDS011;42042;51.948;7.628;2023-02-26T15:23:23;4.80;;;4.30;;
3369;SDS011;42042;51.948;7.628;2023-02-26T15:25:53;2.67;;;1.70;;
3369;SDS011;42042;51.948;7.628;2023-02-26T15:28:22;2.38;;;2.00;;
3369;SDS011;42042;51.948;7.628;2023-02-26T15:30:52;2.97;;;1.88;;
3369;SDS011;42042;51.948;7.628;2023-02-26T15:33:20;2.13;;;1.90;;
3369;SDS011;42042;51.948;7.628;2023-02-26T15:35:49;2.58;;;2.13;;